Almyros — 9HA2510 — position and weather

sailwx.info

Track history (hours):
 
Tides and Currents Weather Stations Pressure Air Temp Water Temp Dewpoint Dewpoint Depression Visibility Wind Speed Wind Dir Waves Ship Positions

Almyros

Last reported at 2014-Sep-20 02:26 UTC. Time now 2014-Oct-23 17:53 UTC.
Position N 01°13' E 103°28'.
Warning: this ship's position is 33 days out of date.

Length 189 m; draft 13 m.

Type: Cargo ship. MMSI: 248779000.

Date/timePositionNaut miles runAvg speedWind from/ knotsBaromVisibWave heightAir tempDewpointWater temp
2014-Sep-20 02:26N 01°13' E 103°28'910.8
2014-Sep-20 01:33N 01°11' E 103°37'1010.3
2014-Sep-20 00:33N 01°10' E 103°48'9 9.5
2014-Sep-19 23:33N 01°14' E 103°56'2 2.5
2014-Sep-19 22:33N 01°17' E 103°57'0 0.1
2014-Sep-19 21:33N 01°17' E 103°57'0 0.0
2014-Sep-19 20:33N 01°17' E 103°57'0 0.0
2014-Sep-19 19:33N 01°17' E 103°57'0 0.0
2014-Sep-19 18:33N 01°17' E 103°57'0 0.0
2014-Sep-19 17:33N 01°17' E 103°57'0 0.0
2014-Sep-19 16:33N 01°17' E 103°57'0 0.0
2014-Sep-19 15:33N 01°17' E 103°57'0 0.1
2014-Sep-19 14:30N 01°16' E 103°57'0 0.2
2014-Sep-19 13:30N 01°17' E 103°57'0 0.0
2014-Sep-19 12:33N 01°17' E 103°57'0 0.0
2014-Sep-19 11:27N 01°17' E 103°57'0 0.0
2014-Sep-19 10:24N 01°17' E 103°57'0 0.0
2014-Sep-19 09:33N 01°17' E 103°57'0 0.0
2014-Sep-19 08:27N 01°17' E 103°57'0 0.1
2014-Sep-19 07:25N 01°17' E 103°57'1 1.6
2014-Sep-19 06:33N 01°15' E 103°58'4 4.3
2014-Sep-19 05:33N 01°16' E 104°02'  
Track history (hours):
 
Tides and Currents Weather Stations Pressure Air Temp Water Temp Dewpoint Dewpoint Depression Visibility Wind Speed Wind Dir Waves Ship Positions

Almyros

Last reported at 2014-Sep-20 02:26 UTC. Time now 2014-Oct-23 17:53 UTC.
Position N 01°13' E 103°28'.
Warning: this ship's position is 33 days out of date.

Length 189 m; draft 13 m.

Type: Cargo ship. MMSI: 248779000.

Date/timePositionNaut miles runAvg speedWind from/ knotsBaromVisibWave heightAir tempDewpointWater temp
2014-Sep-20 02:26N 01°13' E 103°28'910.8
2014-Sep-20 01:33N 01°11' E 103°37'1010.3
2014-Sep-20 00:33N 01°10' E 103°48'9 9.5
2014-Sep-19 23:33N 01°14' E 103°56'2 2.5
2014-Sep-19 22:33N 01°17' E 103°57'0 0.1
2014-Sep-19 21:33N 01°17' E 103°57'0 0.0
2014-Sep-19 20:33N 01°17' E 103°57'0 0.0
2014-Sep-19 19:33N 01°17' E 103°57'0 0.0
2014-Sep-19 18:33N 01°17' E 103°57'0 0.0
2014-Sep-19 17:33N 01°17' E 103°57'0 0.0
2014-Sep-19 16:33N 01°17' E 103°57'0 0.0
2014-Sep-19 15:33N 01°17' E 103°57'0 0.1
2014-Sep-19 14:30N 01°16' E 103°57'0 0.2
2014-Sep-19 13:30N 01°17' E 103°57'0 0.0
2014-Sep-19 12:33N 01°17' E 103°57'0 0.0
2014-Sep-19 11:27N 01°17' E 103°57'0 0.0
2014-Sep-19 10:24N 01°17' E 103°57'0 0.0
2014-Sep-19 09:33N 01°17' E 103°57'0 0.0
2014-Sep-19 08:27N 01°17' E 103°57'0 0.1
2014-Sep-19 07:25N 01°17' E 103°57'1 1.6
2014-Sep-19 06:33N 01°15' E 103°58'4 4.3
2014-Sep-19 05:33N 01°16' E 104°02'  

Dump ship's entire track history